Date,TemperatureHighF,TemperatureAvgF,TemperatureLowF,DewpointHighF,DewpointAvgF,DewpointLowF,HumidityHigh,HumidityAvg,HumidityLow,PressureMaxIn,PressureMinIn,WindSpeedMaxMPH,WindSpeedAvgMPH,GustSpeedMaxMPH,PrecipitationSumIn
2013-7-1,71,53,37,44,32,-100,84,55,22,30.26,29.63,6,1,21,0.00
2013-7-2,70,53,38,43,30,-100,84,52,18,30.04,29.70,4,1,14,0.00
2013-7-3,74,54,36,43,29,-100,82,50,14,29.91,29.62,5,1,24,0.00
2013-7-4,73,57,42,46,36,30,79,51,22,29.82,29.56,2,0,13,0.00
2013-7-5,75,55,45,50,28,-100,86,51,25,29.65,29.26,1,0,12,0.04
2013-7-6,77,58,46,49,40,-100,90,59,22,29.80,29.48,3,0,13,0.07
2013-7-7,72,56,46,51,39,-100,92,65,29,29.86,29.45,2,0,11,0.24
2013-7-8,74,58,44,53,37,-100,92,58,17,29.96,29.73,2,0,16,0.04
2013-7-9,77,59,40,44,25,-100,80,42,16,30.10,29.56,2,0,11,0.00
2013-7-10,81,58,47,48,28,-100,77,46,22,29.98,29.45,2,0,10,0.00
2013-7-11,79,62,43,50,37,-100,82,49,23,29.85,29.34,4,0,11,0.00
2013-7-12,77,57,46,53,31,-100,76,53,28,29.92,29.35,1,0,10,0.02
2013-7-13,74,60,46,48,38,-100,81,53,30,29.85,29.48,2,0,11,0.00
2013-7-14,78,56,44,51,44,38,92,68,25,29.95,29.61,2,0,11,0.31
2013-7-15,63,51,42,52,44,-100,94,83,59,29.98,29.75,3,1,12,0.02
2013-7-16,67,52,38,47,40,-100,92,67,35,29.99,29.78,4,1,16,0.00
2013-7-17,73,56,39,49,41,35,90,60,28,30.01,29.78,3,1,12,0.00
2013-7-18,78,53,43,53,38,-100,92,69,28,30.09,29.67,3,0,12,0.96
2013-7-19,66,52,43,52,40,-100,93,81,52,30.03,29.64,2,0,8,0.09
2013-7-20,74,57,41,53,35,-100,92,60,23,29.94,29.36,2,0,10,0.00
2013-7-21,78,58,43,47,30,-100,88,48,16,29.85,29.34,2,0,10,0.00
2013-7-22,77,60,42,43,34,-100,77,47,19,29.88,29.45,2,0,12,0.00
2013-7-23,81,60,41,48,34,20,76,44,11,30.02,29.63,2,0,10,0.00
2013-7-24,68,52,44,48,31,-100,79,61,36,30.06,29.69,4,0,11,0.02
2013-7-25,73,54,44,50,35,-100,92,65,36,30.03,29.55,4,1,14,0.16
2013-7-26,72,56,40,52,42,35,92,64,27,30.08,29.78,4,1,12,0.00
2013-7-27,73,54,41,50,43,36,92,72,30,29.93,29.61,2,0,10,0.32
2013-7-28,62,51,44,50,37,-100,93,80,58,29.82,29.59,1,0,10,0.27
2013-7-29,66,52,41,50,41,-100,93,73,42,29.98,29.70,2,0,10,0.28
2013-7-30,68,53,39,47,37,-100,92,64,33,30.21,29.92,2,0,11,0.00
2013-7-31,72,55,37,46,32,-100,86,54,21,30.25,29.60,2,0,8,0.00